3OH0 weather

Andy Barnhart Memorial Airport
New Carlisle, Ohio, United States

Public forecast

Using degrees Fahrenheit for public forecast. Weather courtesy of forecast.io.

Closest aviation weather report (METAR) to Andy Barnhart Memorial Airport

Closest report is Wright-Patterson Air Force Base, 6.5 nm (12.0 km) SSW. Retrieved 2020/05/28 23:56 UTC (45 minutes ago):

KFFO 282356Z 21006KT 10SM FEW045 SCT120 26/17 A2991 RMK AO2A SLP126 T02550166 10273 20249 55001

Closest aviation forecast (TAF) to Andy Barnhart Memorial Airport

Closest forecast is Wright-Patterson Air Force Base, 6.5 nm (12.0 km) SSW. Retrieved 2020/05/28 19:10 UTC (6 hours ago):

TAF KFFO 281900Z 2819/3001 23015G20KT 9000 -SHRA BKN030 510152 QNH2989INS BECMG 2900/2901 VRB06KT 8000 -SHRA BKN030 QNH2990INS BECMG 2908/2909 21009KT 9999 NSW SCT030 QNH2991INS BECMG 2915/2916 22015G20KT 9000 -SHRA BKN025 510152 QNH2990INS TEMPO 2916/2921 24020G25KT -TSRA BKN015CB BECMG 2922/2923 27009KT 9000 -SHRA BKN025 QNH2995INS TX26/2821Z TN18/2910Z